Time;durP1;ratioP1;P1;durP2;ratioP2;P2;SDS_P1;SDS_P2;PMS_P1;PMS_P2;Temp;Humidity;BMP_temperature;BMP_pressure;BME280_temperature;BME280_humidity;BME280_pressure;Samples;Min_cycle;Max_cycle;Signal;HPM_P1;HPM_P2
2022/12/03 00:01:07;;;;;;;3.08;2.97;;;;;;;0.68;100.00;101950.59;6082803;23;20021;-73
2022/12/03 00:03:38;;;;;;;3.55;3.35;;;;;;;0.84;100.00;101977.44;6093736;23;20441;-72
2022/12/03 00:06:20;;;;;;;5.63;5.20;;;;;;;0.82;100.00;101964.50;6063124;23;20291;-71
2022/12/03 00:09:05;;;;;;;4.18;3.88;;;;;;;-0.15;100.00;101805.25;6097085;23;20033;-72
2022/12/03 00:11:34;;;;;;;3.33;3.13;;;;;;;0.80;100.00;101971.38;6090192;23;20073;-74
2022/12/03 00:14:08;;;;;;;4.22;4.03;;;;;;;0.60;100.00;101935.03;6063215;23;20018;-74
2022/12/03 00:16:48;;;;;;;7.55;4.28;;;;;;;0.78;100.00;101978.25;6093914;23;20021;-72
2022/12/03 00:19:18;;;;;;;3.10;2.92;;;;;;;0.61;100.00;101951.41;6045701;23;20110;-72
2022/12/03 00:21:52;;;;;;;2.90;2.80;;;;;;;-0.15;100.00;101837.06;6087983;23;20021;-72
2022/12/03 00:24:24;;;;;;;3.92;3.65;;;;;;;-0.27;100.00;101801.69;6054956;23;20022;-71
2022/12/03 00:27:04;;;;;;;6.57;4.05;;;;;;;0.49;100.00;101921.16;6034156;23;20446;-73
2022/12/03 00:29:39;;;;;;;5.10;4.18;;;;;;;0.02;100.00;101839.84;6056284;23;20014;-72
2022/12/03 00:32:09;;;;;;;3.47;3.17;;;;;;;0.76;100.00;101960.16;6020225;23;20059;-73
2022/12/03 00:34:44;;;;;;;4.63;4.32;;;;;;;0.78;100.00;101955.88;6050535;23;20041;-73
2022/12/03 00:37:41;;;;;;;3.45;3.30;;;;;;;0.82;100.00;101961.91;6034451;23;20042;-72
2022/12/03 00:40:12;;;;;;;3.50;3.28;;;;;;;0.12;100.00;101843.34;6061971;23;20021;-72
2022/12/03 00:42:53;;;;;;;4.03;3.75;;;;;;;-0.31;100.00;101778.44;6072619;23;20065;-72
2022/12/03 00:45:26;;;;;;;3.38;3.17;;;;;;;0.76;100.00;101967.03;6058554;23;20018;-75
2022/12/03 00:48:49;;;;;;;3.97;3.67;;;;;;;0.80;100.00;101953.28;6055449;23;20171;-73
2022/12/03 00:52:18;;;;;;;3.40;3.25;;;;;;;0.83;100.00;101961.06;6032421;23;20042;-72
2022/12/03 00:55:12;;;;;;;3.08;2.88;;;;;;;0.84;100.00;101952.44;6011115;23;20413;-74
2022/12/03 00:57:39;;;;;;;2.70;2.60;;;;;;;0.63;100.00;101916.97;6060035;23;20679;-73
2022/12/03 01:00:16;;;;;;;3.75;3.53;;;;;;;0.86;100.00;101960.22;6088708;23;20025;-71
2022/12/03 01:02:54;;;;;;;3.10;3.00;;;;;;;0.87;100.00;101955.09;6081971;23;20017;-72
2022/12/03 01:05:38;;;;;;;4.13;3.83;;;;;;;0.24;100.00;101846.06;6073002;23;20035;-72
2022/12/03 01:08:13;;;;;;;6.05;3.45;;;;;;;0.91;100.00;101967.16;6069264;23;20042;-73
2022/12/03 01:10:48;;;;;;;4.60;4.00;;;;;;;0.92;100.00;101960.28;6067351;23;20038;-73
2022/12/03 01:13:23;;;;;;;2.97;2.85;;;;;;;0.92;100.00;101975.78;6039561;23;20030;-72
2022/12/03 01:16:05;;;;;;;8.13;3.38;;;;;;;0.94;100.00;101963.75;6046667;23;20022;-73
2022/12/03 01:18:45;;;;;;;3.60;3.25;;;;;;;0.95;100.00;101975.81;6022937;23;20092;-72
2022/12/03 01:21:21;;;;;;;3.45;3.25;;;;;;;0.83;100.00;101950.75;6079461;23;20041;-74
2022/12/03 01:23:54;;;;;;;4.65;4.35;;;;;;;0.94;100.00;101959.47;6063636;23;20054;-73
2022/12/03 01:26:49;;;;;;;6.80;3.28;;;;;;;0.85;100.00;101943.88;6027290;23;20488;-75
2022/12/03 01:29:31;;;;;;;3.40;3.10;;;;;;;0.73;100.00;101920.50;6091958;23;20026;-73
2022/12/03 01:32:20;;;;;;;3.42;3.22;;;;;;;0.61;100.00;101892.84;6061557;23;20021;-73
2022/12/03 01:35:10;;;;;;;3.97;3.78;;;;;;;1.04;100.00;101965.53;6057247;23;20265;-74
2022/12/03 01:37:54;;;;;;;3.95;3.50;;;;;;;1.06;100.00;101975.91;6033867;23;20019;-72
2022/12/03 01:40:25;;;;;;;4.45;4.05;;;;;;;1.05;100.00;101987.97;6051390;23;20094;-74
2022/12/03 01:43:01;;;;;;;5.35;4.82;;;;;;;1.08;100.00;101971.59;6053856;23;20042;-74
2022/12/03 01:45:32;;;;;;;3.50;3.35;;;;;;;1.07;100.00;101963.00;6019652;23;20014;-72
2022/12/03 01:48:04;;;;;;;4.95;4.43;;;;;;;0.78;100.00;101942.97;6054000;23;20023;-72
2022/12/03 01:50:35;;;;;;;3.53;3.28;;;;;;;0.76;100.00;101912.78;6065181;23;20634;-73
2022/12/03 01:53:14;;;;;;;3.67;3.40;;;;;;;0.08;100.00;101801.19;6065334;23;20014;-74
2022/12/03 01:55:44;;;;;;;3.35;3.20;;;;;;;0.93;100.00;101946.50;6059431;23;20020;-72
2022/12/03 01:58:20;;;;;;;4.23;3.97;;;;;;;1.11;100.00;101964.75;6072245;23;20487;-72
2022/12/03 02:00:56;;;;;;;3.03;2.92;;;;;;;1.01;100.00;101955.19;6022916;23;20027;-73
2022/12/03 02:03:32;;;;;;;;;;;;;;;1.10;100.00;101967.31;6064757;23;20024;-72
2022/12/03 02:06:02;;;;;;;3.60;3.33;;;;;;;0.91;100.00;101940.47;6045990;23;20294;-72
2022/12/03 02:08:42;;;;;;;4.72;3.72;;;;;;;0.68;100.00;101893.75;6065980;23;20093;-75
2022/12/03 02:11:24;;;;;;;6.05;4.15;;;;;;;1.10;100.00;101968.19;6045975;23;20018;-75
2022/12/03 02:14:21;;;;;;;4.05;3.85;;;;;;;1.09;100.00;101981.09;6061539;23;20024;-73
2022/12/03 02:17:14;;;;;;;2.70;2.60;;;;;;;1.13;100.00;101969.94;6024880;23;20030;-74
2022/12/03 02:20:00;;;;;;;3.90;3.60;;;;;;;1.12;100.00;101966.50;6060181;23;20022;-73
2022/12/03 02:23:00;;;;;;;4.30;3.90;;;;;;;1.13;100.00;101981.13;6060239;23;20038;-74
2022/12/03 02:25:34;;;;;;;4.78;4.38;;;;;;;1.13;100.00;101970.78;6090051;23;20059;-73
2022/12/03 02:28:10;;;;;;;3.83;3.58;;;;;;;1.12;100.00;101963.91;6063018;23;20030;-71
2022/12/03 02:30:41;;;;;;;3.53;3.33;;;;;;;1.13;100.00;101969.94;6067654;23;20021;-72
2022/12/03 02:33:09;;;;;;;4.68;4.28;;;;;;;1.14;100.00;101967.38;6055158;23;20022;-72
2022/12/03 02:35:43;;;;;;;3.53;3.33;;;;;;;1.05;100.00;101946.59;6054429;23;20028;-72
2022/12/03 02:38:22;;;;;;;3.70;3.50;;;;;;;1.11;100.00;101959.56;6042412;23;20022;-73
2022/12/03 02:44:21;;;;;;;3.15;3.05;;;;;;;1.10;100.00;101954.38;6054392;23;20083;-72
2022/12/03 02:46:52;;;;;;;4.68;4.28;;;;;;;0.02;100.00;101767.59;6067034;23;20025;-73
2022/12/03 02:49:34;;;;;;;4.78;3.78;;;;;;;1.12;100.00;101952.66;6059232;23;20022;-73
2022/12/03 02:52:10;;;;;;;3.65;3.45;;;;;;;1.10;100.00;101952.69;6095414;23;20359;-71
2022/12/03 02:54:40;;;;;;;4.35;4.13;;;;;;;1.11;100.00;101946.66;6078205;23;20022;-73
2022/12/03 02:57:10;;;;;;;3.80;3.60;;;;;;;-0.07;100.00;101752.00;6046928;23;20278;-73
2022/12/03 02:59:44;;;;;;;4.55;4.15;;;;;;;0.64;100.00;101881.69;6051498;23;20027;-75
2022/12/03 03:02:31;;;;;;;15.77;4.22;;;;;;;1.10;100.00;101946.63;6049908;23;20530;-73
2022/12/03 03:05:21;;;;;;;3.65;3.42;;;;;;;1.08;100.00;101946.59;6032973;23;20014;-71
2022/12/03 03:08:01;;;;;;;4.00;3.70;;;;;;;1.08;100.00;101951.78;6031063;23;20031;-73
2022/12/03 03:10:34;;;;;;;3.80;3.60;;;;;;;1.07;100.00;101950.06;6052633;23;20018;-73
2022/12/03 03:13:17;;;;;;;3.78;3.58;;;;;;;1.05;100.00;101949.19;6047303;23;20738;-73
2022/12/03 03:15:45;;;;;;;6.82;3.88;;;;;;;0.52;100.00;101882.44;6050944;23;20018;-73
2022/12/03 03:18:14;;;;;;;3.22;3.03;;;;;;;1.06;100.00;101948.31;6046189;23;20186;-72
2022/12/03 03:20:45;;;;;;;4.18;3.65;;;;;;;-0.72;100.00;101649.97;6074592;23;20028;-73
2022/12/03 03:23:14;;;;;;;10.13;3.72;;;;;;;0.85;100.00;101917.16;6047891;23;20102;-73
2022/12/03 03:25:45;;;;;;;4.00;3.03;;;;;;;1.03;100.00;101968.13;6092930;23;20018;-72
2022/12/03 03:28:14;;;;;;;4.18;3.90;;;;;;;1.03;100.00;101945.72;6091067;23;20065;-74
2022/12/03 03:30:43;;;;;;;2.95;2.85;;;;;;;0.75;100.00;101896.41;6074795;23;20077;-74
2022/12/03 03:33:12;;;;;;;3.25;3.05;;;;;;;1.05;100.00;101944.03;6063978;23;20087;-73
2022/12/03 03:35:40;;;;;;;3.50;3.20;;;;;;;1.02;100.00;101941.41;6073752;23;20013;-73
2022/12/03 03:38:08;;;;;;;3.92;3.65;;;;;;;0.83;100.00;101935.22;6091325;23;20044;-72
2022/12/03 03:40:37;;;;;;;3.63;3.33;;;;;;;1.02;100.00;101941.41;6081420;23;20478;-74
2022/12/03 03:43:18;;;;;;;13.10;12.25;;;;;;;1.02;100.00;101938.81;5982757;23;20093;-71
2022/12/03 03:46:06;;;;;;;3.58;3.28;;;;;;;1.01;100.00;101942.25;6045951;23;20126;-72
2022/12/03 03:48:37;;;;;;;5.35;3.88;;;;;;;0.73;100.00;101881.75;6062709;23;20522;-73
2022/12/03 03:51:09;;;;;;;2.70;2.60;;;;;;;0.73;100.00;101882.63;6061414;23;20017;-73
2022/12/03 03:53:40;;;;;;;3.40;3.20;;;;;;;0.52;100.00;101852.34;6037315;23;20085;-73
2022/12/03 03:56:23;;;;;;;5.78;4.15;;;;;;;1.05;100.00;101930.22;6055277;23;20070;-72
2022/12/03 03:58:58;;;;;;;2.85;2.72;;;;;;;1.03;100.00;101932.81;6063072;23;20046;-73
2022/12/03 04:01:28;;;;;;;4.72;4.45;;;;;;;1.04;100.00;101933.66;6037444;23;20030;-72
2022/12/03 04:03:56;;;;;;;3.50;3.30;;;;;;;1.04;100.00;101929.34;6063022;23;20084;-73
2022/12/03 04:06:23;;;;;;;5.57;3.85;;;;;;;0.88;100.00;101897.38;6071624;23;20029;-72
2022/12/03 04:08:50;;;;;;;4.13;3.90;;;;;;;-0.32;100.00;101707.06;6047476;23;20515;-72
2022/12/03 04:14:09;;;;;;;5.07;4.10;;;;;;;1.04;100.00;101921.59;6081201;23;20496;-73
2022/12/03 04:16:51;;;;;;;4.30;3.97;;;;;;;1.03;100.00;101919.88;6052716;23;20022;-71
2022/12/03 04:19:18;;;;;;;8.18;5.22;;;;;;;0.83;100.00;101909.41;6064765;23;20033;-74
2022/12/03 04:24:33;;;;;;;3.45;3.25;;;;;;;0.98;100.00;101924.13;6092528;23;20021;-71
2022/12/03 04:29:48;;;;;;;3.60;3.35;;;;;;;0.95;100.00;101922.41;6091784;23;20002;-73
2022/12/03 04:37:46;;;;;;;3.67;3.47;;;;;;;0.73;100.00;101897.25;6067761;23;20074;-71
2022/12/03 04:43:00;;;;;;;6.72;3.67;;;;;;;0.50;100.00;101864.38;6075648;23;20018;-73
2022/12/03 04:45:27;;;;;;;4.22;3.88;;;;;;;0.84;100.00;101915.41;6035675;23;20464;-73
2022/12/03 04:47:56;;;;;;;5.20;3.85;;;;;;;0.38;100.00;101843.59;6063793;23;20019;-74
2022/12/03 04:50:23;;;;;;;3.92;3.70;;;;;;;0.80;100.00;101909.34;6091652;23;20030;-74
2022/12/03 04:52:49;;;;;;;5.05;3.63;;;;;;;-0.49;100.00;101712.94;6085457;23;20070;-74
2022/12/03 04:55:16;;;;;;;3.40;3.20;;;;;;;0.50;100.00;101866.94;6058469;23;20037;-74
2022/12/03 04:57:43;;;;;;;3.58;3.40;;;;;;;0.84;100.00;101907.66;6076210;23;20033;-75
2022/12/03 05:00:11;;;;;;;4.00;3.70;;;;;;;-0.44;100.00;101695.81;6092973;23;20034;-74
2022/12/03 05:02:37;;;;;;;5.05;4.53;;;;;;;0.68;100.00;101893.75;6078838;23;20033;-74
2022/12/03 05:05:05;;;;;;;4.10;3.80;;;;;;;0.12;100.00;101776.25;6065558;23;20029;-74
2022/12/03 05:07:31;;;;;;;4.22;4.03;;;;;;;0.37;100.00;101826.38;6050710;23;20106;-72
2022/12/03 05:09:58;;;;;;;4.05;3.85;;;;;;;0.85;100.00;101899.94;6093667;23;20085;-74
2022/12/03 05:12:24;;;;;;;5.00;4.68;;;;;;;-0.28;100.00;101706.22;6070858;23;20026;-74
2022/12/03 05:14:50;;;;;;;3.83;3.63;;;;;;;-0.22;100.00;101722.66;6051819;23;20033;-72
2022/12/03 05:17:19;;;;;;;4.97;4.15;;;;;;;0.86;100.00;101898.22;6075731;23;20010;-74
2022/12/03 05:22:33;;;;;;;3.75;3.50;;;;;;;0.82;100.00;101899.91;6077618;23;20530;-74
2022/12/03 05:25:04;;;;;;;3.42;3.22;;;;;;;0.78;100.00;101893.88;6044362;23;20085;-74
2022/12/03 05:27:31;;;;;;;3.72;3.45;;;;;;;0.30;100.00;101817.72;6093444;23;20021;-73
2022/12/03 05:29:59;;;;;;;3.20;3.10;;;;;;;0.78;100.00;101901.63;6084098;23;20017;-74
2022/12/03 05:32:26;;;;;;;4.20;3.92;;;;;;;0.79;100.00;101899.88;6090325;23;20037;-72
2022/12/03 05:34:53;;;;;;;6.13;4.00;;;;;;;0.80;100.00;101899.03;6086196;23;20526;-72
2022/12/03 05:37:24;;;;;;;8.30;3.70;;;;;;;0.79;100.00;101915.41;6059521;23;20025;-72
2022/12/03 05:39:51;;;;;;;3.67;3.38;;;;;;;0.00;100.00;101764.13;6074961;23;20018;-75
2022/12/03 05:45:07;;;;;;;2.90;2.70;;;;;;;0.76;100.00;101893.00;6073167;23;20011;-71
2022/12/03 05:47:37;;;;;;;6.35;4.43;;;;;;;0.45;100.00;101867.75;6056557;23;20092;-71
2022/12/03 05:50:05;;;;;;;4.22;3.90;;;;;;;0.51;100.00;101841.97;6053366;23;20068;-72
2022/12/03 05:52:32;;;;;;;8.25;4.57;;;;;;;0.41;100.00;101828.13;6068489;23;20037;-73
2022/12/03 05:55:02;;;;;;;4.68;4.38;;;;;;;0.56;100.00;101860.94;6074517;23;20018;-72
2022/12/03 05:57:30;;;;;;;6.47;4.00;;;;;;;0.59;100.00;101861.84;6095722;23;20109;-72
2022/12/03 05:59:57;;;;;;;3.95;3.70;;;;;;;-0.10;100.00;101749.38;6075703;23;20070;-73
2022/12/03 06:02:24;;;;;;;4.28;3.92;;;;;;;0.72;100.00;101893.81;6024130;23;20043;-73
2022/12/03 06:04:52;;;;;;;5.78;4.07;;;;;;;-1.01;100.00;101606.75;6055802;23;20017;-73
2022/12/03 06:07:20;;;;;;;4.68;4.28;;;;;;;0.35;100.00;101828.94;6090483;23;20025;-73
2022/12/03 06:09:50;;;;;;;5.00;4.45;;;;;;;0.74;100.00;101889.53;6052953;23;20002;-72
2022/12/03 06:12:18;;;;;;;5.03;4.72;;;;;;;0.61;100.00;101863.59;6069274;23;20084;-73
2022/12/03 06:14:46;;;;;;;4.90;4.43;;;;;;;0.76;100.00;101885.25;6082478;23;20029;-73
2022/12/03 06:17:22;;;;;;;4.32;3.78;;;;;;;-0.06;100.00;101753.72;6028123;23;20032;-72
2022/12/03 06:19:48;;;;;;;6.32;4.32;;;;;;;0.72;100.00;101880.91;6070769;23;20080;-74
2022/12/03 06:22:15;;;;;;;3.17;3.05;;;;;;;0.71;100.00;101880.88;6063675;23;20033;-73
2022/12/03 06:24:42;;;;;;;4.18;3.78;;;;;;;0.55;100.00;101861.81;6077418;23;20028;-74
2022/12/03 06:27:18;;;;;;;4.03;3.72;;;;;;;-0.21;100.00;101759.63;6069547;23;20055;-72
2022/12/03 06:29:45;;;;;;;5.05;3.67;;;;;;;0.63;100.00;101893.72;6061826;23;20096;-74
2022/12/03 06:32:12;;;;;;;4.85;4.45;;;;;;;0.55;100.00;101885.91;6040004;23;20081;-73
2022/12/03 06:34:40;;;;;;;3.92;3.72;;;;;;;0.52;100.00;101890.19;6060237;23;20388;-73
2022/12/03 06:37:11;;;;;;;3.25;3.05;;;;;;;0.45;100.00;101884.13;6028357;23;20064;-71
2022/12/03 06:39:38;;;;;;;3.55;3.35;;;;;;;-0.72;100.00;101698.94;6076407;23;20122;-71
2022/12/03 06:42:05;;;;;;;4.18;3.65;;;;;;;0.27;100.00;101886.53;6057235;23;20018;-73
2022/12/03 06:44:32;;;;;;;3.45;3.20;;;;;;;-0.25;100.00;101812.91;6055019;23;20029;-73
2022/12/03 06:46:59;;;;;;;2.97;2.88;;;;;;;0.17;100.00;101888.16;6064711;23;20006;-72
2022/12/03 06:49:29;;;;;;;3.85;3.65;;;;;;;0.17;100.00;101891.59;6045643;23;20019;-72
2022/12/03 06:51:56;;;;;;;4.03;3.72;;;;;;;0.18;100.00;101892.44;6057597;23;20436;-72
2022/12/03 06:54:30;;;;;;;3.30;3.13;;;;;;;0.22;100.00;101891.66;6047474;23;20029;-73
2022/12/03 06:57:00;;;;;;;4.18;3.88;;;;;;;0.22;100.00;101890.78;6066265;23;20053;-72
2022/12/03 06:59:40;;;;;;;3.83;3.58;;;;;;;0.30;100.00;101890.03;6055785;23;20030;-72
2022/12/03 07:02:09;;;;;;;5.75;3.95;;;;;;;0.19;100.00;101878.72;6067110;23;20515;-72
2022/12/03 07:04:36;;;;;;;3.55;3.35;;;;;;;0.04;100.00;101845.00;6072081;23;20022;-71
2022/12/03 07:07:10;;;;;;;7.05;4.38;;;;;;;0.18;100.00;101870.09;6087676;23;20479;-72
2022/12/03 07:09:37;;;;;;;4.05;3.63;;;;;;;0.30;100.00;101887.44;6046780;23;20026;-71
2022/12/03 07:12:04;;;;;;;3.72;3.53;;;;;;;0.27;100.00;101878.78;6090239;23;20839;-71
2022/12/03 07:14:31;;;;;;;3.00;2.88;;;;;;;0.01;100.00;101832.09;6058534;23;20100;-71
2022/12/03 07:16:57;;;;;;;5.25;4.72;;;;;;;0.27;100.00;101884.81;6090987;23;20018;-72
2022/12/03 07:19:24;;;;;;;5.00;3.33;;;;;;;0.31;100.00;101888.28;6080212;23;20055;-73
2022/12/03 07:21:57;;;;;;;3.75;3.55;;;;;;;0.35;100.00;101880.56;6065727;23;20018;-70
2022/12/03 07:24:24;;;;;;;4.45;4.05;;;;;;;-0.41;100.00;101762.88;6056103;23;20042;-77
2022/12/03 07:26:50;;;;;;;4.60;3.25;;;;;;;0.09;100.00;101838.19;6086084;23;20032;-76
2022/12/03 07:29:17;;;;;;;5.15;3.20;;;;;;;0.40;100.00;101878.03;6058601;23;20052;-75
2022/12/03 07:31:45;;;;;;;9.55;4.35;;;;;;;0.37;100.00;101883.19;6078513;23;20021;-76
2022/12/03 07:34:12;;;;;;;3.08;2.88;;;;;;;0.34;100.00;101889.19;6074285;23;20020;-75
2022/12/03 07:36:49;;;;;;;4.65;4.22;;;;;;;0.09;100.00;101833.00;6070115;23;20017;-75
2022/12/03 07:39:24;;;;;;;5.47;4.60;;;;;;;0.53;100.00;101894.50;6070487;23;20025;-75
2022/12/03 07:41:57;;;;;;;5.35;4.75;;;;;;;0.57;100.00;101883.34;6063294;23;20067;-76
2022/12/03 07:44:25;;;;;;;4.18;3.90;;;;;;;0.59;100.00;101881.66;6070885;23;20076;-76
2022/12/03 07:46:52;;;;;;;4.18;3.88;;;;;;;0.60;100.00;101880.78;6074171;23;20554;-77
2022/12/03 07:49:26;;;;;;;3.65;3.40;;;;;;;0.59;100.00;101902.31;6045459;23;20069;-76
2022/12/03 07:52:01;;;;;;;5.40;3.55;;;;;;;0.02;100.00;101782.19;6061869;23;20099;-77
2022/12/03 07:54:28;;;;;;;3.50;3.40;;;;;;;0.54;100.00;101884.19;6071938;23;20051;-77
2022/12/03 07:56:58;;;;;;;4.00;3.63;;;;;;;0.44;100.00;101876.34;6083055;23;20026;-77
2022/12/03 07:59:27;;;;;;;9.52;4.45;;;;;;;0.56;100.00;101884.19;6061564;23;20046;-76
2022/12/03 08:01:54;;;;;;;5.20;4.65;;;;;;;0.59;100.00;101902.31;6070190;23;20010;-76
2022/12/03 08:04:23;;;;;;;3.95;3.65;;;;;;;0.63;100.00;101885.13;6053053;23;20049;-76
2022/12/03 08:06:50;;;;;;;3.58;3.38;;;;;;;-0.49;100.00;101707.78;6064270;23;20030;-76
2022/12/03 08:09:20;;;;;;;3.72;3.53;;;;;;;0.67;100.00;101877.41;6067437;23;20022;-76
2022/12/03 08:11:48;;;;;;;5.03;3.50;;;;;;;0.70;100.00;101887.78;6017521;23;20294;-76
2022/12/03 08:14:18;;;;;;;5.38;4.63;;;;;;;0.11;100.00;101777.97;6069550;23;20092;-75
2022/12/03 08:16:46;;;;;;;4.22;3.47;;;;;;;0.33;100.00;101804.81;6082586;23;20026;-76
2022/12/03 08:19:25;;;;;;;3.67;3.47;;;;;;;0.81;100.00;101880.09;6046446;23;20025;-76
2022/12/03 08:21:53;;;;;;;4.00;3.60;;;;;;;0.38;100.00;101799.69;6061414;23;20029;-76
2022/12/03 08:24:30;;;;;;;3.55;3.35;;;;;;;0.84;100.00;101929.19;6053286;23;20627;-77
2022/12/03 08:26:57;;;;;;;4.57;3.80;;;;;;;0.27;100.00;101786.69;6073554;23;20511;-76
2022/12/03 08:29:24;;;;;;;7.40;3.75;;;;;;;0.92;100.00;101887.91;6050528;23;20046;-75
2022/12/03 08:31:55;;;;;;;3.63;3.42;;;;;;;0.70;100.00;101833.53;6073333;23;20475;-76
2022/12/03 08:34:25;;;;;;;3.85;3.53;;;;;;;0.54;100.00;101837.72;6077637;23;20042;-75
2022/12/03 08:37:04;;;;;;;3.70;3.42;;;;;;;0.84;100.00;101877.50;6059515;23;20828;-77
2022/12/03 08:39:39;;;;;;;4.10;3.80;;;;;;;1.06;100.00;101891.44;6048475;23;20090;-75
2022/12/03 08:45:39;;;;;;;4.20;3.90;;;;;;;1.01;100.00;101898.31;6073422;23;20002;-75
2022/12/03 08:48:31;;;;;;;3.28;3.15;;;;;;;0.79;100.00;101862.00;6031199;23;20023;-75
2022/12/03 08:51:27;;;;;;;4.63;4.20;;;;;;;1.09;100.00;101893.22;6046378;23;20025;-77
2022/12/03 08:54:11;;;;;;;6.20;3.67;;;;;;;1.09;100.00;101895.78;6066848;23;20033;-74
2022/12/03 08:56:50;;;;;;;6.68;5.03;;;;;;;0.43;100.00;101774.78;6057886;23;20025;-75
2022/12/03 08:59:28;;;;;;;8.57;3.55;;;;;;;1.16;100.00;101893.25;6036682;23;20425;-75
2022/12/03 09:02:24;;;;;;;3.40;3.22;;;;;;;0.11;100.00;101728.06;6082690;23;20049;-75
2022/12/03 09:04:58;;;;;;;3.67;3.47;;;;;;;1.24;100.00;101906.22;6042723;23;20052;-77
2022/12/03 09:07:28;;;;;;;6.15;5.45;;;;;;;0.70;100.00;101818.03;6060195;23;20029;-76
2022/12/03 09:09:55;;;;;;;4.30;4.00;;;;;;;1.32;100.00;101927.84;6069660;23;20160;-76
2022/12/03 09:12:25;;;;;;;3.25;3.05;;;;;;;0.55;100.00;101797.25;6063435;23;20018;-75
2022/12/03 09:14:55;;;;;;;4.78;4.13;;;;;;;1.01;100.00;101845.78;6025500;23;20113;-76
2022/12/03 09:17:25;;;;;;;4.53;4.13;;;;;;;1.32;100.00;101903.66;6080761;23;20039;-75
2022/12/03 09:19:53;;;;;;;6.68;4.30;;;;;;;1.25;100.00;101889.00;6057021;23;20463;-75
2022/12/03 09:22:19;;;;;;;4.25;3.85;;;;;;;1.01;100.00;101848.34;6048731;23;20050;-76
2022/12/03 09:24:46;;;;;;;4.07;3.72;;;;;;;0.73;100.00;101809.41;6080204;23;20064;-77
2022/12/03 09:27:12;;;;;;;3.17;3.08;;;;;;;0.90;100.00;101837.94;6055110;23;20026;-76
2022/12/03 09:29:40;;;;;;;4.05;3.67;;;;;;;1.30;100.00;101907.97;6088271;23;20018;-77
2022/12/03 09:32:07;;;;;;;3.13;2.92;;;;;;;0.92;100.00;101867.22;6015950;23;20015;-75
2022/12/03 09:34:41;;;;;;;4.45;4.15;;;;;;;0.28;100.00;101741.97;6072684;23;20030;-75
2022/12/03 09:37:08;;;;;;;4.30;4.00;;;;;;;0.61;100.00;101796.44;6089711;23;20010;-77
2022/12/03 09:39:37;;;;;;;5.20;3.83;;;;;;;0.96;100.00;101838.84;6043482;23;20364;-75
2022/12/03 09:42:04;;;;;;;3.70;3.40;;;;;;;1.14;100.00;101878.56;6045419;23;20598;-77
2022/12/03 09:44:34;;;;;;;3.40;3.20;;;;;;;1.35;100.00;101894.22;6054329;23;20092;-74
2022/12/03 09:47:01;;;;;;;3.35;3.25;;;;;;;1.35;100.00;101894.22;6063956;23;20064;-74
2022/12/03 09:49:31;;;;;;;5.32;3.97;;;;;;;1.27;100.00;101870.03;6076433;23;20092;-74
2022/12/03 09:52:00;;;;;;;5.18;4.60;;;;;;;1.50;100.00;101902.91;6053964;23;20108;-76
2022/12/03 09:54:34;;;;;;;4.80;4.50;;;;;;;1.50;100.00;101901.16;6082206;23;20037;-75
2022/12/03 09:57:03;;;;;;;8.80;4.05;;;;;;;1.52;100.00;101898.59;6036200;23;20019;-79
2022/12/03 09:59:33;;;;;;;4.25;3.97;;;;;;;1.56;100.00;101893.47;6046258;23;20039;-76
2022/12/03 10:02:01;;;;;;;3.85;3.55;;;;;;;1.59;100.00;101896.06;6059422;23;20705;-75
2022/12/03 10:04:28;;;;;;;5.00;4.35;;;;;;;1.19;100.00;101817.41;6069194;23;20013;-76
2022/12/03 10:06:57;;;;;;;5.05;4.70;;;;;;;1.29;100.00;101833.84;6063833;23;20038;-76
2022/12/03 10:09:27;;;;;;;3.60;3.40;;;;;;;1.49;100.00;101864.97;6087317;23;20060;-76
2022/12/03 10:11:55;;;;;;;4.18;3.97;;;;;;;1.53;100.00;101864.97;6043520;23;20101;-77
2022/12/03 10:14:22;;;;;;;5.00;4.60;;;;;;;1.63;100.00;101872.78;6049037;23;20033;-75
2022/12/03 10:16:48;;;;;;;8.52;4.03;;;;;;;1.71;100.00;101886.63;6083728;23;20025;-75
2022/12/03 10:19:22;;;;;;;6.18;4.30;;;;;;;1.67;100.00;101879.72;6020389;23;20108;-75
2022/12/03 10:21:49;;;;;;;3.80;3.58;;;;;;;1.16;100.00;101784.66;6088887;23;20104;-76
2022/12/03 10:24:15;;;;;;;4.60;4.30;;;;;;;1.61;100.00;101870.19;6061867;23;20026;-76
2022/12/03 10:26:44;;;;;;;3.92;3.72;;;;;;;1.59;100.00;101861.56;6086988;23;20104;-76
2022/12/03 10:29:19;;;;;;;4.10;3.75;;;;;;;1.16;99.40;101776.91;6075732;23;20085;-77
2022/12/03 10:31:58;;;;;;;4.93;4.63;;;;;;;1.52;99.44;101836.50;6060387;23;20564;-77
2022/12/03 10:34:30;;;;;;;3.97;3.70;;;;;;;1.54;99.60;101848.63;6066880;23;20033;-78
2022/12/03 10:37:12;;;;;;;;;;;;;;;1.70;99.82;101859.00;6091358;23;20131;-75
2022/12/03 10:39:58;;;;;;;4.87;4.47;;;;;;;0.94;99.22;101752.69;6047521;23;19910;-78
2022/12/03 10:42:28;;;;;;;3.20;3.05;;;;;;;1.37;99.74;101780.44;6087024;23;20033;-77
2022/12/03 10:45:23;;;;;;;7.57;5.05;;;;;;;1.77;99.87;101845.22;6060030;23;20124;-78
2022/12/03 10:48:04;;;;;;;3.72;3.53;;;;;;;1.57;100.00;101794.28;6061082;23;20029;-78
2022/12/03 10:50:32;;;;;;;9.18;3.55;;;;;;;1.86;99.62;101837.47;6084707;23;20090;-76
2022/12/03 10:52:58;;;;;;;3.85;3.65;;;;;;;0.21;98.41;101559.50;6040782;23;20026;-76
2022/12/03 10:55:33;;;;;;;3.83;3.63;;;;;;;1.84;99.20;101834.00;6084352;23;20744;-76
2022/12/03 10:58:00;;;;;;;4.13;3.83;;;;;;;1.46;98.17;101770.09;6047814;23;20023;-77
2022/12/03 11:00:26;;;;;;;4.40;4.00;;;;;;;1.85;98.84;101825.41;6067128;23;20046;-76
2022/12/03 11:02:53;;;;;;;4.20;3.97;;;;;;;1.93;98.67;101812.47;6078301;23;20163;-75
2022/12/03 11:05:29;;;;;;;3.63;3.42;;;;;;;1.32;97.81;101712.28;6028190;23;20018;-76
2022/12/03 11:07:55;;;;;;;7.07;4.30;;;;;;;1.27;97.82;101693.34;6091833;23;20014;-77
2022/12/03 11:10:22;;;;;;;3.10;3.00;;;;;;;1.51;97.83;101729.59;6054882;23;20042;-76
2022/12/03 11:13:27;;;;;;;5.35;4.50;;;;;;;2.14;98.12;101817.66;6090158;23;20085;-76
2022/12/03 11:15:58;;;;;;;3.45;3.28;;;;;;;1.97;98.05;101784.00;6080924;23;20017;-77
2022/12/03 11:18:37;;;;;;;4.50;4.18;;;;;;;2.12;97.82;101803.00;6068190;23;20025;-75
2022/12/03 11:21:11;;;;;;;3.85;3.55;;;;;;;2.12;97.75;101795.22;6082448;23;20006;-77
2022/12/03 11:23:44;;;;;;;9.52;4.03;;;;;;;2.05;96.07;101788.34;6051795;23;20105;-76
2022/12/03 11:26:38;;;;;;;6.85;4.20;;;;;;;1.95;96.21;101821.09;6067017;23;20311;-76
2022/12/03 11:29:18;;;;;;;4.50;3.80;;;;;;;2.07;96.58;101784.88;6042383;23;20092;-77
2022/12/03 11:31:47;;;;;;;5.05;3.95;;;;;;;1.81;97.32;101733.09;6077216;23;20094;-76
2022/12/03 11:34:31;;;;;;;3.22;3.00;;;;;;;2.18;97.16;101783.13;6062234;23;20038;-77
2022/12/03 11:37:11;;;;;;;3.80;3.60;;;;;;;2.26;96.55;101782.28;6052041;23;20025;-79
2022/12/03 11:39:46;;;;;;;3.40;3.20;;;;;;;2.28;95.80;101775.38;6074489;23;20046;-76
2022/12/03 11:42:24;;;;;;;6.22;3.95;;;;;;;2.29;95.42;101770.19;6057336;23;20030;-77
2022/12/03 11:45:03;;;;;;;3.92;3.72;;;;;;;2.29;95.57;101766.75;6063845;23;20017;-76
2022/12/03 11:47:32;;;;;;;4.55;4.20;;;;;;;1.26;96.50;101594.19;6093448;23;20026;-76
2022/12/03 11:49:59;;;;;;;6.82;4.45;;;;;;;2.37;96.69;101765.88;6044470;23;20343;-76
2022/12/03 11:52:38;;;;;;;5.38;4.88;;;;;;;2.37;98.04;101765.00;6067918;23;20048;-78
2022/12/03 11:55:34;;;;;;;8.32;5.75;;;;;;;2.18;97.11;101730.47;6070969;23;20085;-76
2022/12/03 11:58:14;;;;;;;4.68;4.10;;;;;;;2.40;97.89;101772.75;6063598;23;20020;-77
2022/12/03 12:01:14;;;;;;;8.25;5.57;;;;;;;2.27;97.94;101743.44;6054317;23;20034;-77
2022/12/03 12:03:48;;;;;;;4.75;4.30;;;;;;;2.10;98.12;101716.69;6003156;23;20025;-75
2022/12/03 12:06:18;;;;;;;3.55;3.35;;;;;;;2.42;97.70;101757.22;6054072;23;20025;-78
2022/12/03 12:08:50;;;;;;;4.75;4.45;;;;;;;2.37;98.02;101752.91;6094390;23;20126;-75
2022/12/03 12:11:32;;;;;;;8.75;4.28;;;;;;;2.16;97.64;101730.47;6053715;23;20038;-78
2022/12/03 12:14:00;;;;;;;4.28;4.07;;;;;;;2.32;97.75;101744.28;6068124;23;20014;-78
2022/12/03 12:16:50;;;;;;;4.38;3.92;;;;;;;2.33;96.83;101750.34;6067971;23;20057;-78
2022/12/03 12:19:28;;;;;;;6.72;4.88;;;;;;;2.48;95.83;101742.53;6064418;23;20025;-77
2022/12/03 12:22:10;;;;;;;3.58;3.38;;;;;;;2.14;94.43;101680.41;6056859;23;20026;-78
2022/12/03 12:24:46;;;;;;;5.07;4.68;;;;;;;2.34;92.57;101708.88;6081670;23;20041;-77